Time;durP1;ratioP1;P1;durP2;ratioP2;P2;SDS_P1;SDS_P2;PMS_P1;PMS_P2;Temp;Humidity;BMP_temperature;BMP_pressure;BME280_temperature;BME280_humidity;BME280_pressure;Samples;Min_cycle;Max_cycle;Signal;HPM_P1;HPM_P2
2022/05/27 00:02:04;;;;;;;;;;;12.60;99.90;;;;;;4999862;28;19926;-69
2022/05/27 00:04:31;;;;;;;;;;;12.60;99.90;;;;;;5004971;28;19933;-68
2022/05/27 00:07:00;;;;;;;;;;;12.50;99.90;;;;;;5011695;28;19996;-69
2022/05/27 00:09:28;;;;;;;;;;;12.50;99.90;;;;;;5001838;28;19926;-69
2022/05/27 00:11:54;;;;;;;;;;;12.40;99.90;;;;;;5005453;28;20042;-69
2022/05/27 00:14:24;;;;;;;;;;;12.40;99.90;;;;;;5010302;28;19925;-68
2022/05/27 00:16:53;;;;;;;;;;;12.40;99.90;;;;;;5008839;28;19936;-69
2022/05/27 00:19:20;;;;;;;;;;;12.40;99.90;;;;;;5011180;28;19932;-69
2022/05/27 00:21:47;;;;;;;;;;;12.40;99.90;;;;;;5010319;28;19984;-69
2022/05/27 00:24:14;;;;;;;;;;;12.40;99.90;;;;;;5002231;28;19926;-69
2022/05/27 00:26:43;;;;;;;;;;;12.30;99.90;;;;;;5012407;28;20442;-70
2022/05/27 00:29:09;;;;;;;;;;;12.40;99.90;;;;;;5000746;28;20012;-70
2022/05/27 00:31:36;;;;;;;;;;;12.40;99.90;;;;;;5009197;28;19973;-69
2022/05/27 00:34:03;;;;;;;;;;;12.40;99.90;;;;;;5012946;28;19925;-69
2022/05/27 00:36:29;;;;;;;;;;;12.50;99.90;;;;;;5003742;28;20021;-69
2022/05/27 00:38:57;;;;;;;;;;;12.50;99.90;;;;;;5002219;28;19929;-69
2022/05/27 00:41:24;;;;;;;;;;;12.40;99.90;;;;;;5010084;28;19979;-69
2022/05/27 00:43:50;;;;;;;;;;;12.40;99.90;;;;;;5008867;28;20008;-69
2022/05/27 00:46:22;;;;;;;;;;;12.40;99.90;;;;;;5008715;28;19935;-70
2022/05/27 00:48:52;;;;;;;;;;;12.40;99.90;;;;;;5006224;28;19929;-70
2022/05/27 00:51:25;;;;;;;;;;;12.50;99.90;;;;;;5009556;28;19965;-69
2022/05/27 00:54:06;;;;;;;;;;;12.60;99.90;;;;;;5009328;28;20008;-68
2022/05/27 00:56:34;;;;;;;;;;;12.60;99.90;;;;;;5005705;28;20021;-69
2022/05/27 00:59:05;;;;;;;;;;;12.70;99.90;;;;;;5010161;28;19963;-68
2022/05/27 01:01:34;;;;;;;;;;;12.70;99.90;;;;;;4998322;28;19936;-69
2022/05/27 01:04:02;;;;;;;;;;;12.80;99.90;;;;;;5008323;28;19930;-69
2022/05/27 01:06:29;;;;;;;;;;;12.80;99.90;;;;;;5010064;28;19925;-69
2022/05/27 01:08:56;;;;;;;;;;;12.70;99.90;;;;;;5005007;28;19931;-68
2022/05/27 01:11:22;;;;;;;;;;;12.70;99.90;;;;;;5008701;28;20025;-69
2022/05/27 01:13:49;;;;;;;;;;;12.70;99.90;;;;;;5009749;28;20384;-69
2022/05/27 01:16:22;;;;;;;;;;;12.70;99.90;;;;;;5011807;28;19972;-69
2022/05/27 01:21:54;;;;;;;;;;;12.70;99.90;;;;;;5010071;28;19987;-69
2022/05/27 01:24:39;;;;;;;;;;;12.70;99.90;;;;;;5011284;28;20038;-69
2022/05/27 01:27:06;;;;;;;;;;;12.70;99.90;;;;;;5015068;28;20340;-69
2022/05/27 01:29:52;;;;;;;;;;;12.50;99.90;;;;;;5011196;28;20021;-69
2022/05/27 01:32:26;;;;;;;;;;;12.30;99.90;;;;;;5011590;28;20540;-69
2022/05/27 01:35:01;;;;;;;;;;;12.10;99.90;;;;;;5005981;28;20009;-69
2022/05/27 01:37:39;;;;;;;;;;;12.00;99.90;;;;;;5013574;28;19932;-69
2022/05/27 01:40:12;;;;;;;;;;;11.80;99.90;;;;;;5013719;28;19926;-69
2022/05/27 01:42:43;;;;;;;;;;;11.70;99.90;;;;;;5001385;28;20028;-69
2022/05/27 01:45:19;;;;;;;;;;;11.60;99.90;;;;;;5012145;28;20356;-69
2022/05/27 01:47:52;;;;;;;;;;;11.50;99.90;;;;;;5014242;28;19926;-69
2022/05/27 01:50:25;;;;;;;;;;;11.40;99.90;;;;;;5013793;28;20407;-70
2022/05/27 01:52:52;;;;;;;;;;;11.30;99.90;;;;;;5008861;28;19925;-69
2022/05/27 01:55:34;;;;;;;;;;;11.20;99.90;;;;;;5012651;28;19925;-69
2022/05/27 01:58:04;;;;;;;;;;;11.20;99.90;;;;;;5026909;28;19932;-69
2022/05/27 02:00:31;;;;;;;;;;;11.10;99.90;;;;;;5012398;28;19926;-70
2022/05/27 02:03:03;;;;;;;;;;;11.10;99.90;;;;;;5009544;28;19925;-69
2022/05/27 02:05:30;;;;;;;;;;;11.10;99.90;;;;;;5011946;28;19931;-69
2022/05/27 02:08:05;;;;;;;;;;;11.10;99.90;;;;;;5010381;28;20499;-69
2022/05/27 02:10:41;;;;;;;;;;;11.10;99.90;;;;;;5013253;28;19947;-69
2022/05/27 02:13:17;;;;;;;;;;;11.10;99.90;;;;;;5010495;28;19952;-69
2022/05/27 02:15:45;;;;;;;;;;;11.10;99.90;;;;;;5008604;28;19935;-69
2022/05/27 02:18:16;;;;;;;;;;;11.10;99.90;;;;;;5011867;28;20000;-69
2022/05/27 02:20:46;;;;;;;;;;;11.10;99.90;;;;;;5010699;28;20622;-69
2022/05/27 02:23:22;;;;;;;;;;;11.20;99.90;;;;;;5010524;28;19932;-69
2022/05/27 02:25:51;;;;;;;;;;;11.30;99.90;;;;;;5014234;28;20461;-69
2022/05/27 02:28:18;;;;;;;;;;;11.50;99.90;;;;;;5010257;28;20397;-69
2022/05/27 02:30:46;;;;;;;;;;;11.70;99.90;;;;;;5013010;28;20416;-69
2022/05/27 02:36:29;;;;;;;;;;;12.00;99.90;;;;;;4988290;28;19930;-69
2022/05/27 02:39:01;;;;;;;;;;;12.20;99.90;;;;;;5008944;28;19929;-69
2022/05/27 02:41:37;;;;;;;;;;;12.30;99.90;;;;;;5024768;28;19929;-69
2022/05/27 02:44:06;;;;;;;;;;;12.30;99.90;;;;;;5011650;28;20373;-69
2022/05/27 02:46:58;;;;;;;;;;;12.40;99.90;;;;;;5011980;28;19929;-69
2022/05/27 02:49:25;;;;;;;;;;;12.50;99.90;;;;;;5001418;28;19925;-68
2022/05/27 02:52:04;;;;;;;;;;;12.60;99.90;;;;;;5010304;28;20285;-70
2022/05/27 02:54:31;;;;;;;;;;;12.70;99.90;;;;;;5011690;28;19972;-69
2022/05/27 02:57:01;;;;;;;;;;;12.90;99.90;;;;;;5010595;28;19930;-68
2022/05/27 02:59:29;;;;;;;;;;;13.10;99.90;;;;;;5009176;28;19925;-68
2022/05/27 03:02:02;;;;;;;;;;;13.30;99.90;;;;;;5008883;28;19968;-68
2022/05/27 03:04:30;;;;;;;;;;;13.40;99.90;;;;;;5010480;28;19931;-69
2022/05/27 03:07:15;;;;;;;;;;;13.50;99.90;;;;;;5037256;28;20016;-69
2022/05/27 03:09:44;;;;;;;;;;;13.60;99.90;;;;;;5004960;28;19925;-68
2022/05/27 03:12:35;;;;;;;;;;;13.60;99.90;;;;;;5011076;28;19925;-69
2022/05/27 03:15:25;;;;;;;;;;;13.60;99.90;;;;;;5006091;28;19925;-69
2022/05/27 03:18:10;;;;;;;;;;;13.70;99.90;;;;;;5006720;28;19925;-69
2022/05/27 03:21:00;;;;;;;;;;;13.70;99.90;;;;;;5010334;28;19929;-68
2022/05/27 03:23:39;;;;;;;;;;;13.60;99.90;;;;;;5023240;28;19925;-69
2022/05/27 03:26:05;;;;;;;;;;;13.50;99.90;;;;;;5012449;28;19929;-68
2022/05/27 03:28:44;;;;;;;;;;;13.40;99.90;;;;;;5011898;28;19925;-68
2022/05/27 03:31:17;;;;;;;;;;;13.20;99.90;;;;;;5009869;28;20309;-69
2022/05/27 03:33:50;;;;;;;;;;;13.00;99.90;;;;;;5007693;28;20513;-68
2022/05/27 03:36:18;;;;;;;;;;;12.90;99.90;;;;;;5008134;28;20681;-69
2022/05/27 03:38:45;;;;;;;;;;;12.80;99.90;;;;;;5011441;28;19957;-68
2022/05/27 03:41:17;;;;;;;;;;;12.70;99.90;;;;;;5007552;28;20436;-68
2022/05/27 03:43:44;;;;;;;;;;;12.60;99.90;;;;;;5009189;28;20008;-68
2022/05/27 03:46:11;;;;;;;;;;;12.60;99.90;;;;;;5009699;28;19935;-68
2022/05/27 03:48:38;;;;;;;;;;;12.60;99.90;;;;;;5008843;28;19936;-69
2022/05/27 03:51:08;;;;;;;;;;;12.50;99.90;;;;;;5008551;28;19977;-68
2022/05/27 03:56:20;;;;;;;;;;;12.40;99.90;;;;;;5005014;28;20020;-69
2022/05/27 03:58:47;;;;;;;;;;;12.40;99.90;;;;;;5007250;28;19933;-69
2022/05/27 04:01:14;;;;;;;;;;;12.40;99.90;;;;;;5009529;28;19979;-68
2022/05/27 04:03:40;;;;;;;;;;;12.50;99.90;;;;;;5013902;28;19979;-69
2022/05/27 04:06:07;;;;;;;;;;;12.50;99.90;;;;;;5005541;28;19968;-69
2022/05/27 04:08:34;;;;;;;;;;;12.60;99.90;;;;;;5010255;28;19933;-68
2022/05/27 04:11:01;;;;;;;;;;;12.70;99.90;;;;;;5004958;28;19968;-68
2022/05/27 04:13:28;;;;;;;;;;;12.80;99.90;;;;;;5007614;28;19925;-68
2022/05/27 04:15:55;;;;;;;;;;;12.90;99.90;;;;;;5004851;28;19933;-69
2022/05/27 04:18:22;;;;;;;;;;;13.00;99.90;;;;;;5014091;28;20399;-69
2022/05/27 04:20:48;;;;;;;;;;;13.20;99.90;;;;;;5003876;28;19931;-68
2022/05/27 04:23:15;;;;;;;;;;;13.30;99.90;;;;;;5009903;28;20012;-69
2022/05/27 04:25:46;;;;;;;;;;;13.40;99.90;;;;;;5004477;28;19934;-68
2022/05/27 04:28:13;;;;;;;;;;;13.60;99.90;;;;;;5005097;28;19930;-69
2022/05/27 04:30:41;;;;;;;;;;;13.90;99.90;;;;;;5001530;28;19930;-69
2022/05/27 04:33:09;;;;;;;;;;;14.10;99.90;;;;;;5004760;28;19933;-68
2022/05/27 04:35:36;;;;;;;;;;;14.30;99.90;;;;;;5023924;28;19926;-68
2022/05/27 04:38:02;;;;;;;;;;;14.40;99.90;;;;;;4997891;28;20405;-69
2022/05/27 04:40:29;;;;;;;;;;;14.50;99.90;;;;;;5016055;28;20012;-68
2022/05/27 04:42:56;;;;;;;;;;;14.60;99.90;;;;;;5005447;28;19936;-68
2022/05/27 04:45:23;;;;;;;;;;;14.60;99.90;;;;;;5001965;28;19925;-68
2022/05/27 04:47:50;;;;;;;;;;;14.60;99.90;;;;;;4996806;28;19930;-69
2022/05/27 04:50:17;;;;;;;;;;;14.70;99.90;;;;;;5004923;28;20292;-69
2022/05/27 04:52:44;;;;;;;;;;;14.70;99.90;;;;;;5002718;28;19930;-69
2022/05/27 04:55:12;;;;;;;;;;;14.70;99.90;;;;;;5010769;28;19926;-69
2022/05/27 04:57:40;;;;;;;;;;;14.80;99.90;;;;;;5009178;28;20346;-68
2022/05/27 05:00:13;;;;;;;;;;;14.90;99.90;;;;;;5013239;28;19933;-69
2022/05/27 05:02:41;;;;;;;;;;;15.10;99.90;;;;;;5006261;28;19983;-69
2022/05/27 05:05:13;;;;;;;;;;;15.40;99.90;;;;;;5008632;28;19972;-69
2022/05/27 05:07:41;;;;;;;;;;;15.60;99.90;;;;;;4997727;28;20012;-69
2022/05/27 05:10:12;;;;;;;;;;;15.60;99.90;;;;;;5006135;28;20017;-69
2022/05/27 05:12:38;;;;;;;;;;;15.60;99.90;;;;;;5010041;28;20025;-70
2022/05/27 05:15:05;;;;;;;;;;;15.60;99.90;;;;;;5006158;28;19936;-69
2022/05/27 05:17:32;;;;;;;;;;;15.70;99.90;;;;;;5008500;28;19972;-69
2022/05/27 05:19:59;;;;;;;;;;;15.60;99.90;;;;;;5011199;28;19929;-70
2022/05/27 05:22:26;;;;;;;;;;;15.60;99.90;;;;;;4995472;28;19936;-69
2022/05/27 05:24:53;;;;;;;;;;;15.70;99.90;;;;;;5007919;28;19937;-69
2022/05/27 05:27:21;;;;;;;;;;;15.80;99.90;;;;;;5006967;28;19956;-68
2022/05/27 05:29:48;;;;;;;;;;;15.90;99.90;;;;;;5010118;28;19930;-67
2022/05/27 05:32:15;;;;;;;;;;;16.10;99.90;;;;;;5012977;28;19930;-68
2022/05/27 05:34:41;;;;;;;;;;;16.40;99.90;;;;;;5011835;28;19944;-70
2022/05/27 05:37:08;;;;;;;;;;;17.00;99.90;;;;;;5008532;28;19973;-70
2022/05/27 05:39:36;;;;;;;;;;;17.90;99.90;;;;;;5004921;28;19933;-70
2022/05/27 05:42:05;;;;;;;;;;;18.60;99.90;;;;;;4999979;28;19948;-68
2022/05/27 05:44:32;;;;;;;;;;;18.70;99.90;;;;;;5008816;28;19926;-69
2022/05/27 05:46:59;;;;;;;;;;;18.60;99.90;;;;;;5009937;28;19940;-67
2022/05/27 05:49:26;;;;;;;;;;;18.40;99.90;;;;;;5011183;28;20016;-69
2022/05/27 05:51:54;;;;;;;;;;;18.20;99.90;;;;;;5004965;28;19944;-68
2022/05/27 05:54:22;;;;;;;;;;;17.90;99.90;;;;;;5020843;28;19930;-68
2022/05/27 05:56:48;;;;;;;;;;;17.80;99.90;;;;;;5013493;28;19936;-68
2022/05/27 05:59:15;;;;;;;;;;;17.80;99.90;;;;;;5008828;28;19951;-69
2022/05/27 06:01:43;;;;;;;;;;;17.70;99.90;;;;;;5006140;28;19925;-69
2022/05/27 06:04:12;;;;;;;;;;;17.70;99.90;;;;;;5014323;28;19932;-69
2022/05/27 06:06:39;;;;;;;;;;;17.80;99.90;;;;;;5009399;28;19929;-67
2022/05/27 06:09:06;;;;;;;;;;;17.90;99.90;;;;;;5010586;28;19925;-68
2022/05/27 06:11:33;;;;;;;;;;;17.80;99.90;;;;;;5002541;28;19926;-67
2022/05/27 06:14:00;;;;;;;;;;;17.80;99.90;;;;;;5010446;28;19929;-68
2022/05/27 06:16:27;;;;;;;;;;;17.90;99.90;;;;;;5007238;28;19929;-67
2022/05/27 06:18:54;;;;;;;;;;;18.00;99.90;;;;;;5020679;28;19925;-68
2022/05/27 06:21:20;;;;;;;;;;;17.90;99.90;;;;;;5008346;28;19931;-66
2022/05/27 06:23:47;;;;;;;;;;;17.90;99.90;;;;;;4996353;28;19926;-68
2022/05/27 06:26:14;;;;;;;;;;;17.90;99.90;;;;;;5009563;28;19936;-67
2022/05/27 06:34:23;;;;;;;;;;;17.90;99.90;;;;;;5007892;28;19932;-65
2022/05/27 06:37:02;;;;;;;;;;;17.90;99.90;;;;;;5003295;28;19961;-66
2022/05/27 06:39:31;;;;;;;;;;;17.90;99.90;;;;;;5003517;28;20008;-67
2022/05/27 06:42:02;;;;;;;;;;;17.90;99.90;;;;;;5028677;28;20545;-66
2022/05/27 06:44:49;;;;;;;;;;;17.70;99.90;;;;;;5003468;28;20315;-68
2022/05/27 06:47:15;;;;;;;;;;;17.50;99.90;;;;;;5010404;28;19925;-66
2022/05/27 06:49:45;;;;;;;;;;;17.40;99.90;;;;;;5007354;28;19926;-69
2022/05/27 06:52:13;;;;;;;;;;;17.30;99.90;;;;;;5008710;28;19930;-69
2022/05/27 06:54:41;;;;;;;;;;;17.20;99.90;;;;;;5000773;28;20418;-70
2022/05/27 06:57:08;;;;;;;;;;;17.00;99.90;;;;;;5004078;28;19925;-66
2022/05/27 06:59:35;;;;;;;;;;;17.00;99.90;;;;;;5003970;28;19926;-68
2022/05/27 07:02:02;;;;;;;;;;;16.90;99.90;;;;;;4997479;28;19933;-66
2022/05/27 07:04:29;;;;;;;;;;;16.80;99.90;;;;;;5001281;28;19936;-68
2022/05/27 07:06:57;;;;;;;;;;;16.70;99.90;;;;;;5006634;28;19948;-67
2022/05/27 07:09:25;;;;;;;;;;;16.80;99.90;;;;;;5006065;28;20347;-67
2022/05/27 07:11:55;;;;;;;;;;;16.90;99.90;;;;;;5015330;28;20385;-67
2022/05/27 07:14:21;;;;;;;;;;;16.90;99.90;;;;;;5002720;28;21365;-67
2022/05/27 07:16:48;;;;;;;;;;;16.90;99.90;;;;;;5009784;28;20002;-68
2022/05/27 07:19:34;;;;;;;;;;;16.80;99.90;;;;;;5001898;28;19934;-69
2022/05/27 07:22:05;;;;;;;;;;;16.90;99.90;;;;;;5005375;28;19992;-67
2022/05/27 07:24:31;;;;;;;;;;;16.90;99.90;;;;;;5006731;28;19926;-68
2022/05/27 07:26:58;;;;;;;;;;;16.90;99.90;;;;;;5003630;28;19929;-68
2022/05/27 07:29:25;;;;;;;;;;;17.00;99.90;;;;;;5006206;28;19929;-68
2022/05/27 07:31:51;;;;;;;;;;;17.10;99.90;;;;;;5007421;28;19932;-67
2022/05/27 07:34:27;;;;;;;;;;;17.30;99.90;;;;;;5005311;28;19926;-67
2022/05/27 07:36:54;;;;;;;;;;;17.40;99.90;;;;;;5009359;28;19976;-68
2022/05/27 07:39:21;;;;;;;;;;;17.50;99.90;;;;;;5003524;28;19926;-69
2022/05/27 07:41:47;;;;;;;;;;;17.70;99.90;;;;;;5008879;28;19975;-68
2022/05/27 07:44:14;;;;;;;;;;;17.90;99.90;;;;;;5006997;28;19925;-69
2022/05/27 07:46:42;;;;;;;;;;;18.10;99.90;;;;;;4999188;28;20008;-67
2022/05/27 07:49:09;;;;;;;;;;;18.30;99.90;;;;;;5001941;28;19937;-68
2022/05/27 07:51:56;;;;;;;;;;;18.50;99.90;;;;;;5008466;28;19929;-66
2022/05/27 07:54:23;;;;;;;;;;;18.60;99.90;;;;;;5006462;28;19930;-68
2022/05/27 07:56:49;;;;;;;;;;;18.80;99.90;;;;;;4996878;28;19929;-67
2022/05/27 07:59:16;;;;;;;;;;;19.10;99.90;;;;;;5009087;28;20028;-71
2022/05/27 08:01:43;;;;;;;;;;;19.10;99.90;;;;;;5011588;28;19925;-69
2022/05/27 08:04:09;;;;;;;;;;;19.40;99.90;;;;;;5004816;28;19976;-68
2022/05/27 08:06:36;;;;;;;;;;;19.60;99.90;;;;;;5007459;28;19925;-68
2022/05/27 08:09:10;;;;;;;;;;;19.80;99.90;;;;;;5005901;28;20418;-67
2022/05/27 08:11:39;;;;;;;;;;;20.10;99.90;;;;;;5010019;28;19932;-67
2022/05/27 08:14:07;;;;;;;;;;;20.40;99.90;;;;;;4999786;28;20607;-68
2022/05/27 08:16:34;;;;;;;;;;;20.30;99.90;;;;;;5006146;28;19948;-67
2022/05/27 08:19:02;;;;;;;;;;;20.20;99.90;;;;;;5016605;28;19929;-70
2022/05/27 08:21:29;;;;;;;;;;;20.30;99.90;;;;;;5009098;28;19929;-67
2022/05/27 08:23:58;;;;;;;;;;;20.30;99.90;;;;;;5006182;28;19937;-71
2022/05/27 08:26:25;;;;;;;;;;;20.70;99.90;;;;;;5007467;28;19930;-67
2022/05/27 08:28:51;;;;;;;;;;;21.30;99.90;;;;;;5006571;28;19933;-68
2022/05/27 08:31:21;;;;;;;;;;;22.00;99.90;;;;;;5007897;28;20423;-69
2022/05/27 08:39:18;;;;;;;;;;;23.20;99.90;;;;;;5009372;28;19930;-66
2022/05/27 08:41:47;;;;;;;;;;;23.10;99.90;;;;;;5010155;28;19930;-67
2022/05/27 08:44:30;;;;;;;;;;;23.50;99.90;;;;;;4996364;28;19937;-65
2022/05/27 08:47:00;;;;;;;;;;;24.20;99.90;;;;;;5000951;28;20365;-66
2022/05/27 08:49:33;;;;;;;;;;;24.40;99.90;;;;;;5006076;28;20056;-66
2022/05/27 08:52:11;;;;;;;;;;;24.70;99.90;;;;;;5005866;28;20012;-66
2022/05/27 08:54:54;;;;;;;;;;;25.30;99.90;;;;;;5017602;28;19933;-67
2022/05/27 09:00:14;;;;;;;;;;;25.90;99.90;;;;;;5004930;28;20822;-70
2022/05/27 09:02:46;;;;;;;;;;;26.60;99.90;;;;;;5006090;28;19926;-67
2022/05/27 09:05:17;;;;;;;;;;;26.50;99.90;;;;;;5007133;28;20018;-65
2022/05/27 09:07:48;;;;;;;;;;;26.40;99.90;;;;;;4997670;28;19934;-67
2022/05/27 09:10:18;;;;;;;;;;;26.30;99.90;;;;;;5000405;28;20024;-66
2022/05/27 09:12:45;;;;;;;;;;;26.90;99.90;;;;;;5009259;28;19929;-67
2022/05/27 09:15:15;;;;;;;;;;;26.10;99.90;;;;;;5007619;28;19933;-66
2022/05/27 09:17:44;;;;;;;;;;;25.00;99.90;;;;;;4995629;28;19939;-68
2022/05/27 09:20:17;;;;;;;;;;;23.90;99.90;;;;;;4996967;28;19926;-67
2022/05/27 09:22:44;;;;;;;;;;;22.80;99.90;;;;;;4999705;28;19929;-66
2022/05/27 09:25:28;;;;;;;;;;;22.00;99.90;;;;;;5007430;28;19932;-66
2022/05/27 09:28:01;;;;;;;;;;;21.50;99.90;;;;;;5032382;28;19933;-68
2022/05/27 09:30:31;;;;;;;;;;;21.10;99.90;;;;;;5007372;28;19930;-66
2022/05/27 09:33:03;;;;;;;;;;;20.90;99.90;;;;;;5002332;28;19953;-66
2022/05/27 09:35:43;;;;;;;;;;;21.10;99.90;;;;;;5004370;28;19929;-67
2022/05/27 09:38:13;;;;;;;;;;;21.20;99.90;;;;;;5004109;28;19934;-68
2022/05/27 09:40:57;;;;;;;;;;;21.10;99.90;;;;;;4997679;28;20470;-68
2022/05/27 09:43:34;;;;;;;;;;;20.90;99.90;;;;;;5005661;28;20300;-68
2022/05/27 09:46:02;;;;;;;;;;;20.80;99.90;;;;;;5006545;28;19925;-68
2022/05/27 09:48:29;;;;;;;;;;;20.80;99.90;;;;;;5012481;28;20396;-68
2022/05/27 09:51:00;;;;;;;;;;;21.00;99.90;;;;;;5011388;28;19941;-68
2022/05/27 09:53:31;;;;;;;;;;;21.30;99.90;;;;;;5009070;28;19925;-69
2022/05/27 09:56:04;;;;;;;;;;;21.50;99.90;;;;;;5008360;28;19940;-68
2022/05/27 09:58:33;;;;;;;;;;;21.60;99.90;;;;;;5003389;28;20020;-68
2022/05/27 10:01:04;;;;;;;;;;;21.60;99.90;;;;;;5007155;28;19930;-68
2022/05/27 10:03:36;;;;;;;;;;;21.60;99.90;;;;;;5009226;28;20611;-71
2022/05/27 10:06:07;;;;;;;;;;;21.40;99.90;;;;;;5005710;28;19926;-68
2022/05/27 10:08:36;;;;;;;;;;;21.30;99.90;;;;;;5006022;28;19949;-66
2022/05/27 10:11:07;;;;;;;;;;;21.20;99.90;;;;;;5007364;28;19925;-68
2022/05/27 10:13:41;;;;;;;;;;;21.00;99.90;;;;;;5003823;28;19925;-68
2022/05/27 10:16:11;;;;;;;;;;;20.80;99.90;;;;;;5012291;28;19926;-67
2022/05/27 10:18:39;;;;;;;;;;;20.90;99.90;;;;;;5009957;28;20016;-67
2022/05/27 10:21:11;;;;;;;;;;;21.10;99.90;;;;;;5009570;28;19956;-67
2022/05/27 10:23:39;;;;;;;;;;;22.00;99.90;;;;;;5002246;28;19926;-69
2022/05/27 10:26:25;;;;;;;;;;;23.00;99.90;;;;;;5002794;28;19933;-68
2022/05/27 10:29:15;;;;;;;;;;;23.30;99.90;;;;;;5007627;28;19952;-67
2022/05/27 10:31:53;;;;;;;;;;;23.00;99.90;;;;;;5000630;28;19961;-68
2022/05/27 10:34:49;;;;;;;;;;;22.50;99.90;;;;;;5007041;28;19930;-69
2022/05/27 10:37:16;;;;;;;;;;;22.20;99.90;;;;;;4997840;28;19930;-68
2022/05/27 10:40:08;;;;;;;;;;;21.30;99.90;;;;;;4981029;28;20479;-67
2022/05/27 10:42:34;;;;;;;;;;;21.00;99.90;;;;;;4985946;28;19976;-65
2022/05/27 10:45:02;;;;;;;;;;;20.80;99.90;;;;;;4985413;28;20004;-67
2022/05/27 10:47:35;;;;;;;;;;;20.60;99.90;;;;;;4986409;28;19925;-68
2022/05/27 10:50:08;;;;;;;;;;;20.60;99.90;;;;;;4983470;28;19926;-67
2022/05/27 10:52:43;;;;;;;;;;;20.90;99.90;;;;;;4981216;28;19933;-68
2022/05/27 10:55:16;;;;;;;;;;;21.00;99.90;;;;;;4972529;28;20495;-69
2022/05/27 11:03:48;;;;;;;;;;;21.50;99.90;;;;;;4987317;28;19930;-68
2022/05/27 11:06:33;;;;;;;;;;;21.50;99.90;;;;;;4989299;28;19925;-68
2022/05/27 11:09:06;;;;;;;;;;;21.50;99.90;;;;;;4978388;28;19934;-68
2022/05/27 11:11:39;;;;;;;;;;;21.20;99.90;;;;;;4979100;28;20032;-70
2022/05/27 11:17:16;;;;;;;;;;;21.50;99.90;;;;;;5003196;28;19948;-68
2022/05/27 11:20:02;;;;;;;;;;;21.70;99.90;;;;;;5018206;28;19925;-67
2022/05/27 11:22:36;;;;;;;;;;;21.70;99.90;;;;;;5025876;28;20012;-67
2022/05/27 11:25:15;;;;;;;;;;;22.10;99.90;;;;;;5001245;28;19972;-71
2022/05/27 11:27:44;;;;;;;;;;;22.70;99.90;;;;;;5011548;28;19932;-71
2022/05/27 11:30:16;;;;;;;;;;;22.80;99.90;;;;;;5035410;28;19925;-67
2022/05/27 11:33:02;;;;;;;;;;;22.80;99.90;;;;;;5000431;28;19925;-71
2022/05/27 11:35:29;;;;;;;;;;;22.80;99.90;;;;;;5003955;28;19925;-71
2022/05/27 11:38:13;;;;;;;;;;;22.60;99.90;;;;;;5017700;28;20008;-68
2022/05/27 11:40:58;;;;;;;;;;;22.20;99.90;;;;;;5004954;28;19929;-69
2022/05/27 11:43:40;;;;;;;;;;;21.70;99.90;;;;;;4995800;28;19932;-67
2022/05/27 11:46:25;;;;;;;;;;;21.40;99.90;;;;;;5016276;28;19956;-69
2022/05/27 11:48:55;;;;;;;;;;;21.60;99.90;;;;;;5008261;28;19956;-68
2022/05/27 11:51:40;;;;;;;;;;;21.60;99.90;;;;;;5006828;28;19944;-68
2022/05/27 11:54:19;;;;;;;;;;;21.30;99.90;;;;;;5010491;28;20606;-69
2022/05/27 11:56:58;;;;;;;;;;;20.90;99.90;;;;;;5015096;28;19932;-68
2022/05/27 11:59:28;;;;;;;;;;;20.50;99.90;;;;;;5008567;28;19925;-68
2022/05/27 12:01:56;;;;;;;;;;;20.30;99.90;;;;;;5008611;28;20032;-68
2022/05/27 12:04:28;;;;;;;;;;;20.40;99.90;;;;;;5003972;28;19944;-68
2022/05/27 12:07:03;;;;;;;;;;;20.50;99.90;;;;;;5001795;28;19977;-67
2022/05/27 12:09:32;;;;;;;;;;;20.30;99.90;;;;;;5006842;28;19925;-67
2022/05/27 12:12:01;;;;;;;;;;;20.10;99.90;;;;;;5015918;28;19947;-67
2022/05/27 12:14:44;;;;;;;;;;;19.90;99.90;;;;;;5010488;28;19972;-66
2022/05/27 12:17:16;;;;;;;;;;;19.70;99.90;;;;;;4999478;28;19979;-71
2022/05/27 12:19:46;;;;;;;;;;;18.90;99.90;;;;;;5005457;28;19969;-67
2022/05/27 12:22:21;;;;;;;;;;;18.00;99.90;;;;;;5003308;28;19926;-65
2022/05/27 12:24:54;;;;;;;;;;;17.10;99.90;;;;;;5001358;28;20009;-66
2022/05/27 12:27:24;;;;;;;;;;;16.60;99.90;;;;;;5002518;28;20507;-66
2022/05/27 12:29:51;;;;;;;;;;;16.20;99.90;;;;;;5009125;28;19984;-66
2022/05/27 12:32:19;;;;;;;;;;;16.10;99.90;;;;;;4996733;28;19934;-65
2022/05/27 12:34:50;;;;;;;;;;;16.20;99.90;;;;;;4994583;28;20055;-68
2022/05/27 12:37:17;;;;;;;;;;;16.30;99.90;;;;;;5002732;28;20366;-67
2022/05/27 12:39:47;;;;;;;;;;;16.50;99.90;;;;;;5003904;28;20016;-68
2022/05/27 12:42:26;;;;;;;;;;;17.30;99.90;;;;;;4997484;28;19925;-67
2022/05/27 12:44:52;;;;;;;;;;;18.30;99.90;;;;;;5012187;28;19987;-68
2022/05/27 12:47:22;;;;;;;;;;;19.20;99.90;;;;;;4995342;28;19940;-69
2022/05/27 12:49:58;;;;;;;;;;;19.60;99.90;;;;;;4995047;28;19949;-68
2022/05/27 12:52:28;;;;;;;;;;;19.70;99.90;;;;;;5012594;28;20024;-69
2022/05/27 12:54:56;;;;;;;;;;;19.70;99.90;;;;;;5003842;28;19932;-69
2022/05/27 13:03:34;;;;;;;;;;;19.90;99.90;;;;;;5012388;28;20020;-69
2022/05/27 13:06:04;;;;;;;;;;;19.90;99.90;;;;;;5017310;28;20352;-68
2022/05/27 13:08:33;;;;;;;;;;;20.00;99.90;;;;;;5012486;28;19965;-68
2022/05/27 13:11:00;;;;;;;;;;;20.00;99.90;;;;;;5020504;28;19925;-68
2022/05/27 13:13:29;;;;;;;;;;;19.80;99.90;;;;;;5004894;28;19964;-66
2022/05/27 13:16:31;;;;;;;;;;;19.20;99.90;;;;;;5004515;28;19925;-67
2022/05/27 13:18:59;;;;;;;;;;;18.50;99.90;;;;;;4962967;28;19933;-68
2022/05/27 13:21:32;;;;;;;;;;;18.10;99.90;;;;;;5006035;28;20361;-67
2022/05/27 13:24:23;;;;;;;;;;;18.10;99.90;;;;;;4996001;28;19940;-67
2022/05/27 13:27:00;;;;;;;;;;;18.10;99.90;;;;;;5006819;28;19932;-73
2022/05/27 13:29:38;;;;;;;;;;;18.50;99.90;;;;;;5012984;28;19925;-68
2022/05/27 13:32:10;;;;;;;;;;;19.40;99.90;;;;;;5016915;28;19960;-68
2022/05/27 13:34:40;;;;;;;;;;;20.00;99.90;;;;;;5011219;28;19934;-70
2022/05/27 13:37:14;;;;;;;;;;;20.50;99.90;;;;;;5012226;28;19925;-68
2022/05/27 13:39:44;;;;;;;;;;;20.80;99.90;;;;;;5013476;28;20032;-68
2022/05/27 13:42:11;;;;;;;;;;;21.40;99.90;;;;;;5001348;28;19943;-70
2022/05/27 13:44:40;;;;;;;;;;;21.90;99.90;;;;;;5009188;28;19977;-68
2022/05/27 13:47:10;;;;;;;;;;;22.10;99.90;;;;;;5008669;28;19936;-69
2022/05/27 13:49:38;;;;;;;;;;;22.30;99.90;;;;;;5011800;28;19933;-67
2022/05/27 13:52:11;;;;;;;;;;;22.20;99.90;;;;;;5017443;28;19933;-66
2022/05/27 13:54:38;;;;;;;;;;;21.90;99.90;;;;;;4997725;28;20024;-68
2022/05/27 13:57:10;;;;;;;;;;;22.60;99.90;;;;;;5017247;28;20004;-69
2022/05/27 13:59:47;;;;;;;;;;;23.40;99.90;;;;;;5022590;28;19925;-68
2022/05/27 14:02:16;;;;;;;;;;;23.80;99.90;;;;;;4997960;28;19925;-71
2022/05/27 14:04:52;;;;;;;;;;;24.00;99.90;;;;;;5016274;28;19931;-70
2022/05/27 14:07:35;;;;;;;;;;;24.20;99.90;;;;;;5019069;28;19960;-70
2022/05/27 14:10:04;;;;;;;;;;;24.70;99.90;;;;;;5017848;28;19976;-74
2022/05/27 14:12:32;;;;;;;;;;;25.20;99.90;;;;;;5016478;28;20556;-69
2022/05/27 14:15:04;;;;;;;;;;;25.20;99.90;;;;;;5020700;28;19925;-69
2022/05/27 14:17:31;;;;;;;;;;;;;;;;;;5007682;28;19939;-69
2022/05/27 14:20:06;;;;;;;;;;;26.10;99.90;;;;;;5021949;28;19925;-69
2022/05/27 14:22:43;;;;;;;;;;;26.70;99.90;;;;;;5020350;28;20401;-70
2022/05/27 14:25:09;;;;;;;;;;;27.10;99.90;;;;;;5007089;28;19932;-70
2022/05/27 14:27:42;;;;;;;;;;;26.60;99.90;;;;;;5016876;28;20396;-69
2022/05/27 14:30:09;;;;;;;;;;;;;;;;;;5008524;28;19989;-69
2022/05/27 14:32:35;;;;;;;;;;;27.50;99.90;;;;;;5046903;28;19933;-68
2022/05/27 14:35:04;;;;;;;;;;;27.90;99.90;;;;;;5010144;28;19926;-70
2022/05/27 14:38:07;;;;;;;;;;;28.00;99.90;;;;;;5011888;28;19933;-69
2022/05/27 14:40:33;;;;;;;;;;;27.80;99.90;;;;;;5000377;28;20389;-68
2022/05/27 14:43:00;;;;;;;;;;;28.60;99.90;;;;;;5016347;28;19951;-68
2022/05/27 14:45:54;;;;;;;;;;;28.60;99.90;;;;;;5009729;28;19925;-69
2022/05/27 14:48:33;;;;;;;;;;;27.60;99.90;;;;;;5007255;28;20004;-67
2022/05/27 14:51:18;;;;;;;;;;;26.60;99.90;;;;;;5016447;28;20036;-70
2022/05/27 14:53:47;;;;;;;;;;;25.60;99.90;;;;;;5035031;28;19948;-68
2022/05/27 14:56:18;;;;;;;;;;;24.90;99.90;;;;;;5007962;28;19925;-69
2022/05/27 14:58:44;;;;;;;;;;;25.60;99.90;;;;;;5015311;28;19929;-68
2022/05/27 15:01:15;;;;;;;;;;;26.20;99.90;;;;;;4999642;28;19939;-68
2022/05/27 15:04:06;;;;;;;;;;;27.00;99.90;;;;;;5004490;28;19948;-68
2022/05/27 15:06:35;;;;;;;;;;;26.90;99.90;;;;;;5005107;28;20320;-68
2022/05/27 15:09:15;;;;;;;;;;;26.40;99.90;;;;;;5006748;28;19926;-74
2022/05/27 15:11:42;;;;;;;;;;;25.50;99.90;;;;;;5004666;28;19925;-68
2022/05/27 15:14:30;;;;;;;;;;;24.40;99.90;;;;;;5009205;28;19932;-69
2022/05/27 15:16:57;;;;;;;;;;;23.80;99.90;;;;;;5008963;28;19930;-69
2022/05/27 15:19:25;;;;;;;;;;;23.40;99.90;;;;;;5009028;28;19925;-68
2022/05/27 15:21:56;;;;;;;;;;;23.20;99.90;;;;;;5008891;28;19952;-69